Time;durP1;ratioP1;P1;durP2;ratioP2;P2;SDS_P1;SDS_P2;PMS_P1;PMS_P2;Temp;Humidity;BMP_temperature;BMP_pressure;BME280_temperature;BME280_humidity;BME280_pressure;Samples;Min_cycle;Max_cycle;Signal;HPM_P1;HPM_P2
2022/04/07 00:00:57;;;;;;;9.15;2.00;;;9.40;99.90;;;;;;5027804;28;20088;-49
2022/04/07 00:03:23;;;;;;;7.63;1.58;;;9.50;99.90;;;;;;5024515;28;20045;-52
2022/04/07 00:05:48;;;;;;;8.82;2.17;;;9.50;99.90;;;;;;5018698;28;20053;-51
2022/04/07 00:08:14;;;;;;;6.20;1.70;;;9.50;99.90;;;;;;5042774;28;20045;-52
2022/04/07 00:10:40;;;;;;;5.47;1.80;;;9.50;99.90;;;;;;5037740;28;20377;-52
2022/04/07 00:13:06;;;;;;;4.07;1.90;;;9.50;99.90;;;;;;5044621;28;20119;-52
2022/04/07 00:15:32;;;;;;;6.93;1.75;;;9.50;99.90;;;;;;5020780;28;20102;-50
2022/04/07 00:18:00;;;;;;;5.25;1.80;;;9.50;99.90;;;;;;5045089;28;20037;-44
2022/04/07 00:20:29;;;;;;;5.35;2.17;;;9.50;99.90;;;;;;5038881;28;20065;-52
2022/04/07 00:22:57;;;;;;;4.30;2.47;;;9.50;99.90;;;;;;5033712;28;20041;-50
2022/04/07 00:25:23;;;;;;;7.20;2.20;;;9.60;99.90;;;;;;5039479;28;20036;-47
2022/04/07 00:27:49;;;;;;;7.15;2.25;;;9.60;99.90;;;;;;5045902;28;20068;-49
2022/04/07 00:30:19;;;;;;;5.20;2.35;;;9.60;99.90;;;;;;5029320;28;20072;-51
2022/04/07 00:32:45;;;;;;;8.73;2.90;;;9.60;99.90;;;;;;5045022;28;20037;-50
2022/04/07 00:35:11;;;;;;;4.38;2.45;;;9.60;99.90;;;;;;5041957;28;20041;-52
2022/04/07 00:37:38;;;;;;;6.30;2.45;;;9.60;99.90;;;;;;5041984;28;20119;-50
2022/04/07 00:40:05;;;;;;;8.25;3.05;;;9.50;99.90;;;;;;5047923;28;20543;-52
2022/04/07 00:42:31;;;;;;;7.05;2.40;;;9.50;99.90;;;;;;5041609;28;20041;-49
2022/04/07 00:44:56;;;;;;;5.93;3.03;;;9.50;99.90;;;;;;5042466;28;20490;-50
2022/04/07 00:47:23;;;;;;;7.65;3.60;;;9.50;99.90;;;;;;5041675;28;20820;-50
2022/04/07 00:49:48;;;;;;;8.88;3.42;;;9.50;99.90;;;;;;5047978;28;20549;-52
2022/04/07 00:52:17;;;;;;;5.45;2.90;;;9.50;99.90;;;;;;5047579;28;20128;-50
2022/04/07 00:54:42;;;;;;;8.80;3.28;;;9.40;99.90;;;;;;5036426;28;20041;-51
2022/04/07 00:57:09;;;;;;;6.07;2.80;;;9.40;99.90;;;;;;5046333;28;20033;-50
2022/04/07 00:59:35;;;;;;;8.32;3.55;;;9.40;99.90;;;;;;5041175;28;20551;-53
2022/04/07 01:02:03;;;;;;;8.48;3.30;;;9.40;99.90;;;;;;5042032;28;20048;-50
2022/04/07 01:04:28;;;;;;;10.45;3.05;;;9.30;99.90;;;;;;5036604;28;20045;-50
2022/04/07 01:06:54;;;;;;;9.38;3.10;;;9.30;99.90;;;;;;5030118;28;20505;-49
2022/04/07 01:09:20;;;;;;;6.70;3.10;;;9.30;99.90;;;;;;5043649;28;20052;-53
2022/04/07 01:11:46;;;;;;;9.80;3.38;;;9.40;99.90;;;;;;5037805;28;20037;-52
2022/04/07 01:14:12;;;;;;;6.30;2.70;;;9.40;99.90;;;;;;5042637;28;20028;-51
2022/04/07 01:16:38;;;;;;;9.50;3.47;;;9.30;99.90;;;;;;5026883;28;20128;-51
2022/04/07 01:19:04;;;;;;;4.93;2.42;;;9.30;99.90;;;;;;5040269;28;20114;-48
2022/04/07 01:21:31;;;;;;;4.20;1.38;;;9.30;99.90;;;;;;5040466;28;20545;-51
2022/04/07 01:24:04;;;;;;;6.30;2.28;;;9.30;99.90;;;;;;5045132;28;20508;-51
2022/04/07 01:26:37;;;;;;;7.20;1.98;;;9.30;99.90;;;;;;5044758;28;20041;-51
2022/04/07 01:29:05;;;;;;;8.68;1.90;;;9.40;99.90;;;;;;5039774;28;20076;-52
2022/04/07 01:31:31;;;;;;;6.85;2.10;;;9.30;99.90;;;;;;5042765;28;20049;-51
2022/04/07 01:33:58;;;;;;;6.05;2.30;;;9.30;99.90;;;;;;5046537;28;20572;-50
2022/04/07 01:36:26;;;;;;;5.80;2.20;;;9.30;99.90;;;;;;5042214;28;20072;-49
2022/04/07 01:38:52;;;;;;;7.28;1.83;;;9.20;99.90;;;;;;5045427;28;20524;-44
2022/04/07 01:41:19;;;;;;;5.90;1.67;;;9.10;99.90;;;;;;5039512;28;20405;-48
2022/04/07 01:43:47;;;;;;;6.30;1.58;;;9.10;99.90;;;;;;5037105;28;20064;-51
2022/04/07 01:46:13;;;;;;;6.13;1.40;;;9.00;99.90;;;;;;5043641;28;20080;-52
2022/04/07 01:48:41;;;;;;;4.97;1.40;;;9.00;99.90;;;;;;5047118;28;20037;-52
2022/04/07 01:51:08;;;;;;;7.88;1.85;;;9.10;99.90;;;;;;5044381;28;20092;-45
2022/04/07 01:53:35;;;;;;;6.97;1.73;;;9.10;99.90;;;;;;5019770;28;20040;-48
2022/04/07 01:56:03;;;;;;;7.60;2.00;;;9.10;99.90;;;;;;5020828;28;20417;-49
2022/04/07 01:58:28;;;;;;;12.63;2.03;;;9.20;99.90;;;;;;5033196;28;20108;-46
2022/04/07 02:00:54;;;;;;;8.93;1.77;;;9.20;99.90;;;;;;5030307;28;20041;-52
2022/04/07 02:03:21;;;;;;;8.07;1.83;;;9.20;99.90;;;;;;5034862;28;20091;-44
2022/04/07 02:05:47;;;;;;;8.00;2.17;;;9.20;99.90;;;;;;5030878;28;20168;-52
2022/04/07 02:08:12;;;;;;;7.65;1.52;;;9.20;99.90;;;;;;5042747;28;20199;-52
2022/04/07 02:10:38;;;;;;;8.30;2.40;;;9.20;99.90;;;;;;5041104;28;20107;-52
2022/04/07 02:13:04;;;;;;;6.95;1.88;;;9.20;99.90;;;;;;5040413;28;20033;-44
2022/04/07 02:15:29;;;;;;;12.27;2.22;;;9.20;99.90;;;;;;5040032;28;20397;-48
2022/04/07 02:17:55;;;;;;;12.85;2.13;;;9.30;99.90;;;;;;5042889;28;20438;-49
2022/04/07 02:20:21;;;;;;;8.98;1.80;;;9.20;99.90;;;;;;5047573;28;20067;-48
2022/04/07 02:22:47;;;;;;;11.63;2.15;;;9.20;99.90;;;;;;5042868;28;20041;-51
2022/04/07 02:25:12;;;;;;;10.52;2.08;;;9.20;99.90;;;;;;5024299;28;20033;-52
2022/04/07 02:27:40;;;;;;;6.82;1.55;;;9.10;99.90;;;;;;5037921;28;20033;-51
2022/04/07 02:30:11;;;;;;;8.18;2.20;;;9.10;99.90;;;;;;5038580;28;20041;-50
2022/04/07 02:32:37;;;;;;;11.65;3.05;;;9.20;99.90;;;;;;5048624;28;20096;-53
2022/04/07 02:35:03;;;;;;;9.43;1.85;;;9.20;99.90;;;;;;5040813;28;20040;-48
2022/04/07 02:37:29;;;;;;;7.97;1.83;;;9.20;99.90;;;;;;5043824;28;20029;-48
2022/04/07 02:39:55;;;;;;;12.20;2.00;;;9.20;99.90;;;;;;5042212;28;20065;-43
2022/04/07 02:42:21;;;;;;;11.10;2.28;;;9.20;99.90;;;;;;5050718;28;20044;-51
2022/04/07 02:44:46;;;;;;;10.70;2.67;;;9.20;99.90;;;;;;5040824;28;20658;-52
2022/04/07 02:47:12;;;;;;;11.65;2.28;;;9.20;99.90;;;;;;5040444;28;20047;-52
2022/04/07 02:49:42;;;;;;;11.02;1.77;;;9.10;99.90;;;;;;5027392;28;20053;-51
2022/04/07 02:52:09;;;;;;;10.20;2.15;;;9.20;99.90;;;;;;5048007;28;20477;-52
2022/04/07 02:54:35;;;;;;;7.65;1.17;;;9.10;99.90;;;;;;5042300;28;20029;-46
2022/04/07 02:57:02;;;;;;;10.52;1.70;;;9.20;99.90;;;;;;5046726;28;20481;-45
2022/04/07 02:59:27;;;;;;;7.90;1.75;;;9.10;99.90;;;;;;5024013;28;20482;-51
2022/04/07 03:01:56;;;;;;;15.77;2.72;;;9.10;99.90;;;;;;5044182;28;20069;-44
2022/04/07 03:04:25;;;;;;;7.38;1.92;;;9.00;99.90;;;;;;5036345;28;20040;-51
2022/04/07 03:06:52;;;;;;;9.95;2.13;;;9.00;99.90;;;;;;5028381;28;20091;-52
2022/04/07 03:09:21;;;;;;;9.88;2.03;;;8.90;99.90;;;;;;5042017;28;20489;-49
2022/04/07 03:11:46;;;;;;;10.73;1.75;;;8.90;99.90;;;;;;5055743;28;20413;-51
2022/04/07 03:14:13;;;;;;;10.23;2.08;;;8.80;99.90;;;;;;5046227;28;20029;-50
2022/04/07 03:16:39;;;;;;;7.53;1.83;;;8.80;99.90;;;;;;5050999;28;20433;-52
2022/04/07 03:19:05;;;;;;;16.27;3.03;;;8.80;99.90;;;;;;5039683;28;20513;-48
2022/04/07 03:21:30;;;;;;;12.18;2.08;;;8.80;99.90;;;;;;5043897;28;20092;-50
2022/04/07 03:23:56;;;;;;;8.65;2.15;;;8.80;99.90;;;;;;5042056;28;20045;-52
2022/04/07 03:26:22;;;;;;;11.25;2.28;;;8.80;99.90;;;;;;5046226;28;20032;-49
2022/04/07 03:28:48;;;;;;;9.10;1.77;;;8.80;99.90;;;;;;5046147;28;20037;-52
2022/04/07 03:31:14;;;;;;;9.80;1.90;;;8.80;99.90;;;;;;5043504;28;20067;-51
2022/04/07 03:33:40;;;;;;;4.75;1.50;;;8.80;99.90;;;;;;5039807;28;20064;-49
2022/04/07 03:36:05;;;;;;;5.40;1.30;;;8.90;99.90;;;;;;5041043;28;20470;-48
2022/04/07 03:38:31;;;;;;;7.53;1.70;;;8.90;99.90;;;;;;5047316;28;20041;-48
2022/04/07 03:40:57;;;;;;;11.85;1.90;;;8.90;99.90;;;;;;5025738;28;20048;-43
2022/04/07 03:43:23;;;;;;;12.70;2.67;;;8.90;99.90;;;;;;5041200;28;20304;-46
2022/04/07 03:45:49;;;;;;;7.38;3.00;;;8.90;99.90;;;;;;5046442;28;20041;-51
2022/04/07 03:48:14;;;;;;;11.85;3.00;;;9.00;99.90;;;;;;5037444;28;20033;-48
2022/04/07 03:50:41;;;;;;;15.13;2.88;;;9.00;99.90;;;;;;5037729;28;20026;-48
2022/04/07 03:53:07;;;;;;;16.92;3.90;;;9.00;99.90;;;;;;5046045;28;20508;-51
2022/04/07 03:55:33;;;;;;;12.55;2.30;;;8.90;99.90;;;;;;5038985;28;20034;-45
2022/04/07 03:57:58;;;;;;;9.95;2.28;;;8.90;99.90;;;;;;5028845;28;20357;-43
2022/04/07 04:00:26;;;;;;;16.77;3.08;;;8.80;99.90;;;;;;5044304;28;20045;-51
2022/04/07 04:02:52;;;;;;;14.88;4.43;;;8.90;99.90;;;;;;5041785;28;20137;-52
2022/04/07 04:05:18;;;;;;;12.10;2.63;;;8.90;99.90;;;;;;5044143;28;20540;-48
2022/04/07 04:07:44;;;;;;;16.85;3.45;;;8.90;99.90;;;;;;5047693;28;20463;-51
2022/04/07 04:10:10;;;;;;;16.17;3.10;;;8.90;99.90;;;;;;5044018;28;20059;-47
2022/04/07 04:12:36;;;;;;;13.82;2.25;;;8.90;99.90;;;;;;5047650;28;20029;-51
2022/04/07 04:15:02;;;;;;;22.25;2.35;;;9.00;99.90;;;;;;5041796;28;20123;-51
2022/04/07 04:17:31;;;;;;;13.60;2.30;;;9.00;99.90;;;;;;5049191;28;20045;-52
2022/04/07 04:19:57;;;;;;;12.15;2.53;;;9.00;99.90;;;;;;5047676;28;20086;-51
2022/04/07 04:22:23;;;;;;;15.90;2.70;;;9.00;99.90;;;;;;5042940;28;20033;-52
2022/04/07 04:24:48;;;;;;;13.10;2.53;;;8.90;99.90;;;;;;5048758;28;20064;-45
2022/04/07 04:27:14;;;;;;;11.18;1.85;;;9.00;99.90;;;;;;5040713;28;20041;-48
2022/04/07 04:29:42;;;;;;;13.90;2.42;;;9.10;99.90;;;;;;5043945;28;20045;-50
2022/04/07 04:32:09;;;;;;;17.50;2.63;;;9.00;99.90;;;;;;5047361;28;20045;-50
2022/04/07 04:34:34;;;;;;;13.63;3.53;;;9.00;99.90;;;;;;5039537;28;20485;-45
2022/04/07 04:37:00;;;;;;;14.90;3.03;;;8.90;99.90;;;;;;5033144;28;20045;-50
2022/04/07 04:39:26;;;;;;;16.25;2.75;;;8.90;99.90;;;;;;5050054;28;20576;-50
2022/04/07 04:41:51;;;;;;;14.68;2.80;;;8.90;99.90;;;;;;5044983;28;20115;-50
2022/04/07 04:44:17;;;;;;;22.13;3.28;;;8.90;99.90;;;;;;5046457;28;20357;-46
2022/04/07 04:46:43;;;;;;;10.63;2.15;;;8.80;99.90;;;;;;5052246;28;20536;-50
2022/04/07 04:49:08;;;;;;;15.00;2.58;;;8.80;99.90;;;;;;5042119;28;20049;-51
2022/04/07 04:51:34;;;;;;;13.60;2.35;;;8.80;99.90;;;;;;5048244;28;20681;-48
2022/04/07 04:54:00;;;;;;;13.77;2.45;;;8.80;99.90;;;;;;5051150;28;20028;-47
2022/04/07 04:56:27;;;;;;;14.77;2.97;;;8.80;99.90;;;;;;5041316;28;20048;-50
2022/04/07 04:58:54;;;;;;;12.35;2.50;;;8.80;99.90;;;;;;5042347;28;20053;-46
2022/04/07 05:01:19;;;;;;;15.43;3.03;;;8.80;99.90;;;;;;5043047;28;20094;-51
2022/04/07 05:03:45;;;;;;;10.93;2.33;;;8.80;99.90;;;;;;5031596;28;20064;-46
2022/04/07 05:06:11;;;;;;;13.73;3.20;;;8.80;99.90;;;;;;5052303;28;20148;-47
2022/04/07 05:08:36;;;;;;;9.25;3.22;;;8.80;99.90;;;;;;5050548;28;20056;-50
2022/04/07 05:11:02;;;;;;;8.27;2.92;;;8.80;99.90;;;;;;5023054;28;20049;-47
2022/04/07 05:13:28;;;;;;;9.95;3.03;;;8.80;99.90;;;;;;5043322;28;20037;-49
2022/04/07 05:15:53;;;;;;;8.90;2.97;;;8.90;99.90;;;;;;5049845;28;20131;-49
2022/04/07 05:18:19;;;;;;;8.77;2.03;;;8.80;99.90;;;;;;5047008;28;20034;-46
2022/04/07 05:20:44;;;;;;;11.95;2.15;;;8.80;99.90;;;;;;5043745;28;20047;-50
2022/04/07 05:23:11;;;;;;;9.80;2.53;;;8.90;99.90;;;;;;5044334;28;20494;-48
2022/04/07 05:25:37;;;;;;;13.23;2.30;;;8.90;99.90;;;;;;5044583;28;20033;-50
2022/04/07 05:28:02;;;;;;;13.30;3.45;;;8.90;99.90;;;;;;5041891;28;20516;-50
2022/04/07 05:30:28;;;;;;;9.95;2.88;;;8.80;99.90;;;;;;5040544;28;20037;-50
2022/04/07 05:32:54;;;;;;;9.70;2.88;;;8.80;99.90;;;;;;5042253;28;20189;-46
2022/04/07 05:35:20;;;;;;;6.05;0.60;;;8.80;99.90;;;;;;5044892;28;20152;-48
2022/04/07 05:37:46;;;;;;;3.78;0.40;;;8.50;99.90;;;;;;5045796;28;20041;-45
2022/04/07 05:40:13;;;;;;;1.67;0.40;;;7.10;99.90;;;;;;5029459;28;20051;-45
2022/04/07 05:42:39;;;;;;;2.35;0.40;;;6.20;99.90;;;;;;5043120;28;20793;-49
2022/04/07 05:45:05;;;;;;;3.15;0.40;;;5.70;99.90;;;;;;5046097;28;20120;-48
2022/04/07 05:47:38;;;;;;;1.80;0.30;;;5.50;99.90;;;;;;5046624;28;20041;-45
2022/04/07 05:50:04;;;;;;;1.98;0.30;;;5.50;99.90;;;;;;5043538;28;20087;-50
2022/04/07 05:52:30;;;;;;;2.40;0.43;;;5.50;99.90;;;;;;5060664;28;20037;-46
2022/04/07 05:54:56;;;;;;;3.70;0.30;;;5.50;99.90;;;;;;5035766;28;20044;-46
2022/04/07 05:57:22;;;;;;;3.28;0.30;;;5.40;99.90;;;;;;5048923;28;20521;-42
2022/04/07 05:59:48;;;;;;;3.42;0.30;;;5.40;99.90;;;;;;5053398;28;20098;-46
2022/04/07 06:02:13;;;;;;;1.55;0.40;;;5.40;99.90;;;;;;5039479;28;20037;-46
2022/04/07 06:04:40;;;;;;;1.35;0.38;;;5.30;99.90;;;;;;5048989;28;20036;-46
2022/04/07 06:07:06;;;;;;;2.42;0.30;;;5.30;99.90;;;;;;5043235;28;20069;-47
2022/04/07 06:09:34;;;;;;;1.73;0.17;;;5.30;99.90;;;;;;5036919;28;20501;-47
2022/04/07 06:12:00;;;;;;;1.30;0.20;;;5.30;99.90;;;;;;5016575;28;20099;-46
2022/04/07 06:14:26;;;;;;;4.28;0.30;;;5.30;99.90;;;;;;5038093;28;20457;-44
2022/04/07 06:16:51;;;;;;;2.90;0.20;;;5.30;99.90;;;;;;5047560;28;20060;-47
2022/04/07 06:19:17;;;;;;;2.08;0.30;;;5.30;99.90;;;;;;5049839;28;20032;-47
2022/04/07 06:21:43;;;;;;;3.25;0.30;;;5.30;99.90;;;;;;5047248;28;20432;-49
2022/04/07 06:24:09;;;;;;;2.53;0.30;;;5.30;99.90;;;;;;5046595;28;20085;-45
2022/04/07 06:26:35;;;;;;;4.40;0.43;;;5.30;99.90;;;;;;5044591;28;20039;-46
2022/04/07 06:29:00;;;;;;;1.52;0.20;;;5.30;99.90;;;;;;5051451;28;20044;-43
2022/04/07 06:31:26;;;;;;;1.63;0.40;;;5.30;99.90;;;;;;5044876;28;20069;-48
2022/04/07 06:33:52;;;;;;;6.07;0.50;;;5.20;99.90;;;;;;5040190;28;20447;-46
2022/04/07 06:36:18;;;;;;;2.70;0.20;;;5.20;99.90;;;;;;5047129;28;20072;-47
2022/04/07 06:38:43;;;;;;;2.75;0.10;;;5.20;99.90;;;;;;5044391;28;20032;-48
2022/04/07 06:41:09;;;;;;;1.33;0.20;;;5.20;99.90;;;;;;5043575;28;20063;-44
2022/04/07 06:43:35;;;;;;;1.55;0.30;;;5.20;99.90;;;;;;4990217;28;20129;-43
2022/04/07 06:46:00;;;;;;;3.10;0.30;;;5.20;99.90;;;;;;5046928;28;20076;-47
2022/04/07 06:48:26;;;;;;;1.90;0.22;;;5.20;99.90;;;;;;5026658;28;20040;-46
2022/04/07 06:50:51;;;;;;;3.30;0.65;;;5.20;99.90;;;;;;5047225;28;20040;-47
2022/04/07 06:53:17;;;;;;;2.88;0.28;;;5.30;99.90;;;;;;5043405;28;20025;-46
2022/04/07 06:55:43;;;;;;;4.07;0.55;;;5.30;99.90;;;;;;5045313;28;20063;-47
2022/04/07 06:58:11;;;;;;;2.50;0.38;;;5.30;99.90;;;;;;5046372;28;20083;-49
2022/04/07 07:00:45;;;;;;;1.67;0.20;;;5.30;99.90;;;;;;5043986;28;20076;-46
2022/04/07 07:03:13;;;;;;;5.28;0.20;;;5.30;99.90;;;;;;5051446;28;20078;-44
2022/04/07 07:05:38;;;;;;;1.80;0.30;;;5.30;99.90;;;;;;5048448;28;20276;-48
2022/04/07 07:08:14;;;;;;;4.60;0.30;;;5.30;99.90;;;;;;5042271;28;20437;-46
2022/04/07 07:10:40;;;;;;;3.17;0.57;;;5.30;99.90;;;;;;5042920;28;20092;-46
2022/04/07 07:13:05;;;;;;;5.05;0.50;;;5.30;99.90;;;;;;5048007;28;20032;-48
2022/04/07 07:15:31;;;;;;;2.15;0.30;;;5.30;99.90;;;;;;5045200;28;20043;-46
2022/04/07 07:17:57;;;;;;;2.25;0.55;;;5.40;99.90;;;;;;5041268;28;20059;-51
2022/04/07 07:20:22;;;;;;;2.63;0.40;;;5.40;99.90;;;;;;5038939;28;20045;-51
2022/04/07 07:22:48;;;;;;;3.63;0.80;;;5.40;99.90;;;;;;5047945;28;20090;-51
2022/04/07 07:25:14;;;;;;;2.72;1.38;;;5.40;99.90;;;;;;4999737;28;20136;-46
2022/04/07 07:27:45;;;;;;;1.42;0.30;;;5.50;99.90;;;;;;5044849;28;20037;-51
2022/04/07 07:30:13;;;;;;;4.55;0.40;;;5.50;99.90;;;;;;5044521;28;20091;-50
2022/04/07 07:32:40;;;;;;;1.40;0.30;;;5.50;99.90;;;;;;5038925;28;20064;-50
2022/04/07 07:35:07;;;;;;;1.15;0.70;;;5.50;99.90;;;;;;5041619;28;20037;-47
2022/04/07 07:37:33;;;;;;;1.15;0.20;;;5.50;99.90;;;;;;5042159;28;20489;-48
2022/04/07 07:40:06;;;;;;;3.13;0.30;;;5.60;99.90;;;;;;5043376;28;20498;-47
2022/04/07 07:42:32;;;;;;;2.40;0.30;;;5.70;99.90;;;;;;5054117;28;20553;-47
2022/04/07 07:44:58;;;;;;;1.70;0.30;;;5.70;99.90;;;;;;5027240;28;20033;-48
2022/04/07 07:47:23;;;;;;;1.50;0.57;;;5.70;99.90;;;;;;5038010;28;20045;-51
2022/04/07 07:49:49;;;;;;;1.02;0.25;;;5.80;99.90;;;;;;5041325;28;20406;-50
2022/04/07 07:52:15;;;;;;;1.70;0.20;;;5.80;99.90;;;;;;5048010;28;20036;-46
2022/04/07 07:54:40;;;;;;;1.38;0.20;;;5.90;99.90;;;;;;5052251;28;20124;-50
2022/04/07 07:57:06;;;;;;;2.15;0.30;;;5.90;99.90;;;;;;5043359;28;20456;-47
2022/04/07 07:59:32;;;;;;;2.25;0.20;;;5.90;99.90;;;;;;5041163;28;20470;-48
2022/04/07 08:01:57;;;;;;;2.50;0.30;;;6.00;99.90;;;;;;5041841;28;20146;-52
2022/04/07 08:04:23;;;;;;;2.75;0.30;;;6.00;99.90;;;;;;5042177;28;20037;-44
2022/04/07 08:06:49;;;;;;;3.53;0.30;;;6.00;99.90;;;;;;5037693;28;20525;-45
2022/04/07 08:09:15;;;;;;;1.63;0.30;;;6.10;99.90;;;;;;5038528;28;20041;-47
2022/04/07 08:11:41;;;;;;;1.70;0.22;;;6.20;99.90;;;;;;5038605;28;20025;-47
2022/04/07 08:14:08;;;;;;;1.73;0.10;;;6.20;99.90;;;;;;5029503;28;20342;-47
2022/04/07 08:16:38;;;;;;;1.90;0.28;;;6.30;99.90;;;;;;5042394;28;20398;-47
2022/04/07 08:19:04;;;;;;;2.17;0.40;;;6.40;99.90;;;;;;5041566;28;20045;-45
2022/04/07 08:21:30;;;;;;;3.88;0.20;;;6.40;99.90;;;;;;5049114;28;20583;-48
2022/04/07 08:23:56;;;;;;;2.17;0.30;;;6.50;99.90;;;;;;5041141;28;20041;-50
2022/04/07 08:26:22;;;;;;;1.35;0.30;;;6.60;99.90;;;;;;5048084;28;20057;-47
2022/04/07 08:28:47;;;;;;;4.10;0.40;;;6.60;99.90;;;;;;5045818;28;20056;-47
2022/04/07 08:31:13;;;;;;;6.72;0.80;;;6.60;99.90;;;;;;5035058;28;20037;-47
2022/04/07 08:33:39;;;;;;;1.88;0.28;;;6.60;99.90;;;;;;5042276;28;20033;-50
2022/04/07 08:36:04;;;;;;;1.65;0.25;;;6.70;99.90;;;;;;5041088;28;20037;-49
2022/04/07 08:38:30;;;;;;;2.72;0.30;;;6.80;99.90;;;;;;5042978;28;20037;-48
2022/04/07 08:40:56;;;;;;;3.63;0.20;;;6.90;99.90;;;;;;5043289;28;20040;-51
2022/04/07 08:43:25;;;;;;;3.15;0.20;;;7.10;99.90;;;;;;5038387;28;20583;-44
2022/04/07 08:45:51;;;;;;;1.75;0.20;;;7.30;99.90;;;;;;5034414;28;20056;-54
2022/04/07 08:48:17;;;;;;;3.47;0.20;;;7.40;99.90;;;;;;5043984;28;20113;-49
2022/04/07 08:50:44;;;;;;;5.28;0.40;;;7.60;99.90;;;;;;5037614;28;20052;-50
2022/04/07 08:53:11;;;;;;;2.85;0.20;;;7.70;99.90;;;;;;5034106;28;20033;-52
2022/04/07 08:55:37;;;;;;;3.38;0.65;;;7.90;99.90;;;;;;5046648;28;20407;-41
2022/04/07 08:58:04;;;;;;;3.53;0.63;;;8.00;99.90;;;;;;5039227;28;20033;-45
2022/04/07 09:00:29;;;;;;;5.63;0.57;;;8.10;99.90;;;;;;5047545;28;20098;-45
2022/04/07 09:02:55;;;;;;;3.67;0.45;;;8.20;99.90;;;;;;5022174;28;20116;-46
2022/04/07 09:05:25;;;;;;;3.90;0.60;;;8.30;99.90;;;;;;5043118;28;20068;-50
2022/04/07 09:07:53;;;;;;;3.22;0.30;;;8.40;99.90;;;;;;5043853;28;20037;-52
2022/04/07 09:10:20;;;;;;;5.22;0.32;;;8.60;99.90;;;;;;5035059;28;20136;-52
2022/04/07 09:12:46;;;;;;;2.65;0.40;;;8.60;99.90;;;;;;5045106;28;20397;-47
2022/04/07 09:15:13;;;;;;;6.15;0.50;;;8.70;99.90;;;;;;5045347;28;20044;-47
2022/04/07 09:17:59;;;;;;;2.60;0.30;;;8.80;99.90;;;;;;5044518;28;20087;-49
2022/04/07 09:20:25;;;;;;;3.05;0.60;;;8.90;99.90;;;;;;5039930;28;20046;-49
2022/04/07 09:23:01;;;;;;;7.32;0.75;;;9.10;99.90;;;;;;5045208;28;20055;-48
2022/04/07 09:25:27;;;;;;;5.55;0.65;;;9.20;99.90;;;;;;5044061;28;20150;-51
2022/04/07 09:27:57;;;;;;;4.90;1.33;;;9.40;99.90;;;;;;5043059;28;20040;-49
2022/04/07 09:30:23;;;;;;;4.68;0.35;;;9.40;99.90;;;;;;5048423;28;20053;-50
2022/04/07 09:32:49;;;;;;;5.03;0.70;;;9.50;99.90;;;;;;5041903;28;20064;-51
2022/04/07 09:35:15;;;;;;;4.28;0.50;;;9.50;99.90;;;;;;5045526;28;20062;-48
2022/04/07 09:37:42;;;;;;;3.75;0.50;;;9.40;99.90;;;;;;5042638;28;20087;-52
2022/04/07 09:40:17;;;;;;;5.93;0.77;;;9.40;99.90;;;;;;5045115;28;20051;-51
2022/04/07 09:42:43;;;;;;;3.72;0.50;;;9.50;99.90;;;;;;5041711;28;20111;-49
2022/04/07 09:45:14;;;;;;;4.03;0.60;;;9.50;99.90;;;;;;5044156;28;20533;-50
2022/04/07 09:47:43;;;;;;;7.85;0.73;;;9.60;99.90;;;;;;5052275;28;20045;-47
2022/04/07 09:50:20;;;;;;;4.03;0.65;;;9.60;99.90;;;;;;5044449;28;21892;-48
2022/04/07 09:52:59;;;;;;;5.90;0.60;;;9.60;99.90;;;;;;5020365;28;20044;-52
2022/04/07 09:55:28;;;;;;;8.43;1.23;;;9.70;99.90;;;;;;5045270;28;20037;-48
2022/04/07 09:57:55;;;;;;;7.43;0.60;;;9.60;99.90;;;;;;5034468;28;20033;-51
2022/04/07 10:00:21;;;;;;;8.55;1.25;;;9.50;99.90;;;;;;5042726;28;20055;-50
2022/04/07 10:02:47;;;;;;;12.52;0.55;;;9.50;99.90;;;;;;5058250;28;20493;-50
2022/04/07 10:05:14;;;;;;;7.65;0.57;;;9.40;99.90;;;;;;5022378;28;20040;-49
2022/04/07 10:07:42;;;;;;;8.63;1.23;;;9.50;99.90;;;;;;5034628;28;20064;-49
2022/04/07 10:10:08;;;;;;;9.70;1.35;;;9.60;99.90;;;;;;5035808;28;20081;-47
2022/04/07 10:12:34;;;;;;;11.57;1.02;;;9.60;99.90;;;;;;5057996;28;20037;-48
2022/04/07 10:15:02;;;;;;;10.70;1.10;;;9.70;99.90;;;;;;5040075;28;20029;-49
2022/04/07 10:17:28;;;;;;;5.72;1.00;;;9.80;99.90;;;;;;5023781;28;20509;-48
2022/04/07 10:20:04;;;;;;;14.60;1.60;;;9.90;99.90;;;;;;5037009;28;20044;-49
2022/04/07 10:23:02;;;;;;;9.13;1.52;;;10.00;99.90;;;;;;5034392;28;20042;-51
2022/04/07 10:25:29;;;;;;;4.80;0.88;;;10.00;99.90;;;;;;5018331;28;20140;-50
2022/04/07 10:28:00;;;;;;;9.75;1.50;;;10.10;99.90;;;;;;5044063;28;20051;-51
2022/04/07 10:30:29;;;;;;;6.65;1.50;;;10.20;99.90;;;;;;5038393;28;20037;-50
2022/04/07 10:32:58;;;;;;;9.40;1.45;;;10.20;99.90;;;;;;5038292;28;20036;-51
2022/04/07 10:35:30;;;;;;;8.55;1.85;;;10.20;99.90;;;;;;5046361;28;20468;-51
2022/04/07 10:37:56;;;;;;;9.50;1.83;;;10.10;99.90;;;;;;5048155;28;20041;-52
2022/04/07 10:40:51;;;;;;;7.70;1.58;;;10.10;99.90;;;;;;5038952;28;20046;-51
2022/04/07 10:43:25;;;;;;;12.75;1.23;;;10.10;99.90;;;;;;5037596;28;20342;-48
2022/04/07 10:46:05;;;;;;;4.68;0.80;;;10.10;99.90;;;;;;5038317;28;20115;-45
2022/04/07 10:48:38;;;;;;;11.52;1.25;;;10.10;99.90;;;;;;5036097;28;20410;-49
2022/04/07 10:51:09;;;;;;;8.13;1.10;;;10.10;99.90;;;;;;5035980;28;20401;-47
2022/04/07 10:53:39;;;;;;;6.97;1.27;;;9.90;99.70;;;;;;5038304;28;20128;-52
2022/04/07 10:56:08;;;;;;;9.77;1.95;;;9.80;99.90;;;;;;5035583;28;20045;-46
2022/04/07 10:58:48;;;;;;;8.27;1.13;;;9.70;99.90;;;;;;5046634;28;20143;-49
2022/04/07 11:01:36;;;;;;;11.82;1.27;;;9.70;99.90;;;;;;5043284;28;20041;-49
2022/04/07 11:04:18;;;;;;;10.50;1.35;;;9.70;99.90;;;;;;5038976;28;20136;-49
2022/04/07 11:07:02;;;;;;;6.10;1.30;;;9.60;99.90;;;;;;5039853;28;20460;-51
2022/04/07 11:09:47;;;;;;;6.78;1.05;;;9.50;99.90;;;;;;5042796;28;20052;-58
2022/04/07 11:12:20;;;;;;;10.52;0.95;;;9.50;99.90;;;;;;5050713;28;20083;-52
2022/04/07 11:14:47;;;;;;;6.00;0.88;;;9.50;99.90;;;;;;5045631;28;20116;-52
2022/04/07 11:17:30;;;;;;;8.88;1.20;;;9.50;99.90;;;;;;5052142;28;20040;-47
2022/04/07 11:20:17;;;;;;;10.95;1.10;;;9.50;99.90;;;;;;5043356;28;20503;-52
2022/04/07 11:22:52;;;;;;;7.50;1.02;;;9.60;99.90;;;;;;5045901;28;20041;-40
2022/04/07 11:25:33;;;;;;;7.57;0.93;;;9.80;99.90;;;;;;5047568;28;20489;-38
2022/04/07 11:28:19;;;;;;;5.38;1.02;;;9.90;99.90;;;;;;5050673;28;20052;-39
2022/04/07 11:30:53;;;;;;;5.90;0.80;;;10.00;98.90;;;;;;5053526;28;20044;-39
2022/04/07 11:33:25;;;;;;;7.93;1.17;;;10.10;98.80;;;;;;5039456;28;20048;-40
2022/04/07 11:36:00;;;;;;;9.60;0.95;;;10.10;97.80;;;;;;5036726;28;20114;-38
2022/04/07 11:38:36;;;;;;;6.18;1.00;;;10.10;97.80;;;;;;5042374;28;20045;-38
2022/04/07 11:41:16;;;;;;;15.52;1.98;;;10.10;97.30;;;;;;5048310;28;20486;-38
2022/04/07 11:43:43;;;;;;;7.28;1.02;;;10.20;97.70;;;;;;5040287;28;20071;-39
2022/04/07 11:46:10;;;;;;;9.85;1.50;;;10.40;97.60;;;;;;5049878;28;20037;-39
2022/04/07 11:48:38;;;;;;;8.30;1.13;;;10.50;96.30;;;;;;5044714;28;20073;-39
2022/04/07 11:51:12;;;;;;;10.23;1.42;;;10.60;95.10;;;;;;5043668;28;20375;-39
2022/04/07 11:53:44;;;;;;;12.13;1.70;;;10.60;95.80;;;;;;5021511;28;20042;-38
2022/04/07 11:56:13;;;;;;;;;;;10.60;94.40;;;;;;5044530;28;20044;-39
2022/04/07 11:58:38;;;;;;;7.50;1.55;;;10.60;95.20;;;;;;5038537;28;19924;-43
2022/04/07 12:01:11;;;;;;;10.55;2.28;;;10.70;93.90;;;;;;5039373;28;20029;-39
2022/04/07 12:03:40;;;;;;;8.68;1.20;;;10.60;92.10;;;;;;5035875;28;20049;-39
2022/04/07 12:06:06;;;;;;;8.20;1.90;;;10.60;92.50;;;;;;5053025;28;20080;-39
2022/04/07 12:08:32;;;;;;;9.38;1.20;;;10.60;92.00;;;;;;5038902;28;20061;-39
2022/04/07 12:10:58;;;;;;;9.18;1.55;;;10.60;91.60;;;;;;5040830;28;20047;-38
2022/04/07 12:13:24;;;;;;;9.13;1.30;;;10.80;92.60;;;;;;5021570;28;20363;-39
2022/04/07 12:15:50;;;;;;;9.02;1.65;;;11.00;90.80;;;;;;5041008;28;20079;-39
2022/04/07 12:18:27;;;;;;;7.97;1.30;;;11.00;87.90;;;;;;5037350;28;20389;-38
2022/04/07 12:21:05;;;;;;;12.52;1.77;;;11.10;90.20;;;;;;5042354;28;20124;-39
2022/04/07 12:23:31;;;;;;;8.88;1.35;;;11.00;85.70;;;;;;5037747;28;20040;-40
2022/04/07 12:26:02;;;;;;;11.52;1.58;;;11.10;87.10;;;;;;5038458;28;20065;-39
2022/04/07 12:28:38;;;;;;;5.45;0.73;;;11.20;90.00;;;;;;5037765;28;20033;-39
2022/04/07 12:31:09;;;;;;;5.72;0.80;;;11.20;81.60;;;;;;5039888;28;20540;-41
2022/04/07 12:33:39;;;;;;;10.02;1.13;;;11.30;83.20;;;;;;5034646;28;20051;-39
2022/04/07 12:36:10;;;;;;;7.65;1.02;;;11.50;82.00;;;;;;5051351;28;20034;-40
2022/04/07 12:38:36;;;;;;;5.53;0.93;;;11.20;81.50;;;;;;5048331;28;20087;-42
2022/04/07 12:41:13;;;;;;;7.93;1.80;;;11.10;85.20;;;;;;5038847;28;20088;-38
2022/04/07 12:43:47;;;;;;;7.93;0.98;;;11.00;83.30;;;;;;5041373;28;20034;-39
2022/04/07 12:46:13;;;;;;;8.65;1.25;;;10.90;85.40;;;;;;5026082;28;20433;-38
2022/04/07 12:49:03;;;;;;;6.95;1.80;;;10.90;89.40;;;;;;5036692;28;20029;-41
2022/04/07 12:51:29;;;;;;;6.55;0.90;;;10.90;88.10;;;;;;5039453;28;20041;-38
2022/04/07 12:54:14;;;;;;;9.25;1.33;;;10.90;87.90;;;;;;5036888;28;20409;-41
2022/04/07 12:56:42;;;;;;;7.63;1.10;;;10.80;86.40;;;;;;5038497;28;20048;-39